Aeroporto :
LOGIN :

Iscrizione | Disclaimer

   EN    FR    IT 

 










Sommario :    VFR   VFR Marginale   IFR   IFR Intensivo   IFR Molto Intensivo
Visibilità : 
Base nubi : 
>= 8 km
>= 3000ft
5 / 8 km
1000 / 3000 ft
1500m / 5 km
500 / 1000 ft
800 / 1500m
200 / 500 ft
< 800m
< 200 ft
Simboli :   Temporali  Nebbia  Neve Forte  Precipitazioni Forti  Vento > 20 kt
SIGMETs :   Varie  Temporali  Ghiacco  Turbolenza  Onda orograficha  Ceneri Vulcaniche






- Altitudine del aeroporto : 23 ft
- Codice IATA : XFW


EDHI - Hamburg Finkenwerder

ULTIMO METAR :
  • 290620Z AUTO 04004KT 010V070 9999 // SCT031/// OVC038/// 03/01 Q1028

METARs OBSOLETI :
  • 290550Z AUTO 03004KT 9999 // OVC032/// 02/00 Q1028
  • 290520Z AUTO 02004KT 9999 // OVC031/// 02/00 Q1028
  • 290450Z AUTO 02004KT 360V060 9999 // OVC032/// 01/M01 Q1027
  • 290420Z AUTO 03003KT 010V070 9999 // OVC033/// 01/M01 Q1027
  • 290350Z AUTO 03003KT 9999 // OVC034/// 01/M00 Q1027

Previsioni scadute.



MetMap, La meteo Aeronautica in un colpo d'occhio ! - Copyright ORBIFLY Dicembre 2007 - Disclaimer

ORBIFLY MET'MAP TEAM :

Programmazione e sviluppo : Alexandra Zaïnal
Concezione : Baudouin d'Aumeries
Aiuto per la programmazione : Marc-Olivier Méhu
Supporto tecnico e logistico : Manuel Goepfert
Aiuto per la traduzione : Arnaldo La Scala

Contatto : metmap@orbifly.com




FONTI E CREDITI :

   NOAA